createdAt,value
2022-09-09T00:00:41.395Z,17.19
2022-09-09T00:02:51.888Z,17.17
2022-09-09T00:05:16.251Z,17.15
2022-09-09T00:07:29.002Z,17.12
2022-09-09T00:09:39.159Z,17.12
2022-09-09T00:11:46.525Z,17.07
2022-09-09T00:13:57.777Z,17.04
2022-09-09T00:16:08.112Z,17.00
2022-09-09T00:18:24.926Z,16.97
2022-09-09T00:20:39.826Z,16.92
2022-09-09T00:22:51.932Z,16.90
2022-09-09T00:24:58.539Z,16.89
2022-09-09T00:27:08.422Z,16.87
2022-09-09T00:29:23.389Z,16.85
2022-09-09T00:31:32.634Z,16.87
2022-09-09T00:33:38.627Z,16.89
2022-09-09T00:35:49.011Z,16.98
2022-09-09T00:37:57.834Z,17.04
2022-09-09T00:40:06.122Z,17.04
2022-09-09T00:42:18.608Z,17.04
2022-09-09T00:44:35.688Z,17.03
2022-09-09T00:46:57.169Z,17.00
2022-09-09T00:49:13.087Z,16.92
2022-09-09T00:51:30.574Z,16.92
2022-09-09T00:53:43.118Z,16.91
2022-09-09T00:55:53.062Z,16.90
2022-09-09T00:57:57.975Z,16.87
2022-09-09T01:00:22.406Z,16.86
2022-09-09T01:02:32.501Z,16.84
2022-09-09T01:04:40.481Z,16.79
2022-09-09T01:06:54.447Z,16.75
2022-09-09T01:09:29.842Z,16.73
2022-09-09T01:11:41.036Z,16.71
2022-09-09T01:13:48.945Z,16.72
2022-09-09T01:15:58.507Z,16.75
2022-09-09T01:18:11.116Z,16.76
2022-09-09T01:20:25.288Z,16.70
2022-09-09T01:22:41.089Z,16.71
2022-09-09T01:24:58.430Z,16.70
2022-09-09T01:27:27.312Z,16.64
2022-09-09T01:29:32.623Z,16.60
2022-09-09T01:31:42.038Z,16.58
2022-09-09T01:33:47.500Z,16.53
2022-09-09T01:35:57.361Z,16.52
2022-09-09T01:38:06.678Z,16.45
2022-09-09T01:40:13.034Z,16.45
2022-09-09T01:42:20.386Z,16.46
2022-09-09T01:44:29.544Z,16.49
2022-09-09T01:46:34.402Z,16.52
2022-09-09T01:48:39.752Z,16.57
2022-09-09T01:50:47.319Z,16.57
2022-09-09T01:52:54.964Z,16.59
2022-09-09T01:55:03.622Z,16.63
2022-09-09T01:57:22.246Z,16.67
2022-09-09T01:59:45.918Z,16.71
2022-09-09T02:02:06.586Z,16.69
2022-09-09T02:04:21.818Z,16.69
2022-09-09T02:06:34.430Z,16.73
2022-09-09T02:08:52.118Z,16.76
2022-09-09T02:11:03.268Z,16.78
2022-09-09T02:13:17.769Z,16.79
2022-09-09T02:15:32.074Z,16.77
2022-09-09T02:17:40.760Z,16.72
2022-09-09T02:19:58.732Z,16.71
2022-09-09T02:22:15.542Z,16.67
2022-09-09T02:24:20.393Z,16.65
2022-09-09T02:26:33.285Z,16.64
2022-09-09T02:28:44.806Z,16.64
2022-09-09T02:30:56.417Z,16.67
2022-09-09T02:33:11.647Z,16.72
2022-09-09T02:35:27.727Z,16.76
2022-09-09T02:37:38.951Z,16.76
2022-09-09T02:39:44.050Z,16.77
2022-09-09T02:41:52.196Z,16.74
2022-09-09T02:43:58.019Z,16.71
2022-09-09T02:46:12.053Z,16.62
2022-09-09T02:48:26.785Z,16.64
2022-09-09T02:50:37.790Z,16.64
2022-09-09T02:52:54.639Z,16.69
2022-09-09T02:55:08.087Z,16.70
2022-09-09T02:57:17.215Z,16.70
2022-09-09T02:59:26.299Z,16.68
2022-09-09T03:01:36.745Z,16.63
2022-09-09T03:03:42.553Z,16.62
2022-09-09T03:05:51.694Z,16.63
2022-09-09T03:07:56.421Z,16.64
2022-09-09T03:10:01.624Z,16.66
2022-09-09T03:12:08.220Z,16.69
2022-09-09T03:14:13.777Z,16.72
2022-09-09T03:16:19.192Z,16.73
2022-09-09T03:18:29.940Z,16.72
2022-09-09T03:20:35.951Z,16.70
2022-09-09T03:22:46.072Z,16.67
2022-09-09T03:24:50.838Z,16.64
2022-09-09T03:26:56.875Z,16.60
2022-09-09T03:29:01.693Z,16.55
2022-09-09T03:31:11.501Z,16.50
2022-09-09T03:33:18.998Z,16.42
2022-09-09T03:35:27.712Z,16.45
2022-09-09T03:37:32.824Z,16.46
2022-09-09T03:39:37.407Z,16.40
2022-09-09T03:41:42.406Z,16.35
2022-09-09T03:43:48.242Z,16.33
2022-09-09T03:45:53.956Z,16.32
2022-09-09T03:47:58.831Z,16.33
2022-09-09T03:50:05.222Z,16.34
2022-09-09T03:52:13.451Z,16.36
2022-09-09T03:54:18.662Z,16.36
2022-09-09T03:56:23.407Z,16.36
2022-09-09T03:58:29.381Z,16.37
2022-09-09T04:00:46.272Z,16.39
2022-09-09T04:02:51.100Z,16.42
2022-09-09T04:04:56.463Z,16.43
2022-09-09T04:07:01.377Z,16.42
2022-09-09T04:09:08.919Z,16.44
2022-09-09T04:11:14.087Z,16.47
2022-09-09T04:13:20.700Z,16.50
2022-09-09T04:15:26.175Z,16.47
2022-09-09T04:17:31.051Z,16.39
2022-09-09T04:19:36.622Z,16.37
2022-09-09T04:21:41.514Z,16.29
2022-09-09T04:23:46.305Z,16.29
2022-09-09T04:25:55.381Z,16.30
2022-09-09T04:28:01.227Z,16.28
2022-09-09T04:30:07.873Z,16.24
2022-09-09T04:32:12.880Z,16.19
2022-09-09T04:34:18.706Z,16.14
2022-09-09T04:36:23.773Z,16.14
2022-09-09T04:38:32.959Z,16.14
2022-09-09T04:40:37.877Z,16.11
2022-09-09T04:42:47.636Z,16.05
2022-09-09T04:44:52.878Z,16.02
2022-09-09T04:46:57.699Z,15.97
2022-09-09T04:49:02.625Z,15.95
2022-09-09T04:51:14.846Z,15.92
2022-09-09T04:53:20.666Z,15.98
2022-09-09T04:55:25.453Z,16.02
2022-09-09T04:57:30.225Z,16.05
2022-09-09T04:59:37.802Z,16.12
2022-09-09T05:01:42.721Z,16.14
2022-09-09T05:03:48.790Z,16.16
2022-09-09T05:05:57.818Z,16.18
2022-09-09T05:08:05.957Z,16.21
2022-09-09T05:10:11.779Z,16.20
2022-09-09T05:12:17.586Z,16.18
2022-09-09T05:14:28.504Z,16.18
2022-09-09T05:16:36.116Z,16.24
2022-09-09T05:18:41.090Z,16.30
2022-09-09T05:20:46.608Z,16.35
2022-09-09T05:22:51.555Z,16.36
2022-09-09T05:24:56.433Z,16.38
2022-09-09T05:27:03.282Z,16.37
2022-09-09T05:29:09.358Z,16.36
2022-09-09T05:31:15.995Z,16.38
2022-09-09T05:33:25.024Z,16.38
2022-09-09T05:35:31.209Z,16.42
2022-09-09T05:37:36.098Z,16.48
2022-09-09T05:39:41.377Z,16.52
2022-09-09T05:41:46.233Z,16.58
2022-09-09T05:43:51.129Z,16.66
2022-09-09T05:46:08.655Z,16.72
2022-09-09T05:48:13.811Z,16.78
2022-09-09T05:50:21.329Z,16.75
2022-09-09T05:52:27.314Z,16.73
2022-09-09T05:54:33.718Z,16.75
2022-09-09T05:56:38.719Z,16.74
2022-09-09T05:58:48.063Z,16.75
2022-09-09T06:00:53.178Z,16.75
2022-09-09T06:02:58.515Z,16.74
2022-09-09T06:05:04.126Z,16.71
2022-09-09T06:07:11.537Z,16.69
2022-09-09T06:09:16.510Z,16.69
2022-09-09T06:11:23.451Z,16.67
2022-09-09T06:13:28.261Z,16.67
2022-09-09T06:15:33.557Z,16.69
2022-09-09T06:17:38.253Z,16.70
2022-09-09T06:19:43.018Z,16.76
2022-09-09T06:21:48.887Z,16.77
2022-09-09T06:24:00.882Z,16.81
2022-09-09T06:26:09.444Z,16.89
2022-09-09T06:28:14.614Z,17.01
2022-09-09T06:30:20.425Z,17.14
2022-09-09T06:32:25.275Z,17.27
2022-09-09T06:34:30.007Z,17.36
2022-09-09T06:36:39.217Z,17.47
2022-09-09T06:38:43.962Z,17.55
2022-09-09T06:40:59.172Z,17.66
2022-09-09T06:43:04.645Z,17.73
2022-09-09T06:45:20.339Z,17.80
2022-09-09T06:47:32.484Z,17.87
2022-09-09T06:49:37.295Z,17.94
2022-09-09T06:51:46.229Z,17.96
2022-09-09T06:53:55.463Z,18.03
2022-09-09T06:56:04.963Z,18.09
2022-09-09T06:58:12.117Z,18.10
2022-09-09T07:00:18.072Z,18.08
2022-09-09T07:02:22.926Z,18.07
2022-09-09T07:04:27.852Z,18.01
2022-09-09T07:06:35.264Z,18.00
2022-09-09T07:08:40.910Z,18.05
2022-09-09T07:10:45.906Z,18.08
2022-09-09T07:12:56.545Z,18.08
2022-09-09T07:15:03.413Z,18.12
2022-09-09T07:17:08.317Z,18.15
2022-09-09T07:19:17.418Z,18.10
2022-09-09T07:21:23.702Z,18.06
2022-09-09T07:23:31.316Z,18.04
2022-09-09T07:25:38.207Z,18.02
2022-09-09T07:27:43.019Z,17.99
2022-09-09T07:29:50.502Z,17.93
2022-09-09T07:31:56.492Z,17.90
2022-09-09T07:34:07.291Z,17.96
2022-09-09T07:36:16.381Z,18.06
2022-09-09T07:38:21.536Z,18.18
2022-09-09T07:40:26.596Z,18.21
2022-09-09T07:42:31.960Z,18.18
2022-09-09T07:44:37.437Z,18.20
2022-09-09T07:46:49.660Z,18.24
2022-09-09T07:49:01.278Z,18.31
2022-09-09T07:51:10.193Z,18.40
2022-09-09T07:53:15.426Z,18.44
2022-09-09T07:55:20.652Z,18.58
2022-09-09T07:57:25.678Z,18.75
2022-09-09T07:59:31.915Z,18.86
2022-09-09T08:01:40.491Z,18.98
2022-09-09T08:03:55.981Z,19.14
2022-09-09T08:06:05.307Z,19.28
2022-09-09T08:08:10.182Z,19.33
2022-09-09T08:10:15.730Z,19.43
2022-09-09T08:12:21.031Z,19.52
2022-09-09T08:14:26.846Z,19.60
2022-09-09T08:16:33.790Z,19.68
2022-09-09T08:18:40.215Z,19.79
2022-09-09T08:20:47.572Z,19.90
2022-09-09T08:22:53.688Z,19.96
2022-09-09T08:24:59.054Z,20.03
2022-09-09T08:27:04.049Z,20.14
2022-09-09T08:29:11.608Z,20.19
2022-09-09T08:31:19.026Z,20.32
2022-09-09T08:33:23.934Z,20.43
2022-09-09T08:35:32.288Z,20.43
2022-09-09T08:37:39.813Z,20.51
2022-09-09T08:39:44.694Z,20.57
2022-09-09T08:42:19.035Z,20.71
2022-09-09T08:44:34.922Z,20.80
2022-09-09T08:46:57.080Z,20.90
2022-09-09T08:49:09.882Z,20.92
2022-09-09T08:51:16.976Z,21.00
2022-09-09T08:53:31.414Z,21.10
2022-09-09T08:55:44.540Z,21.14
2022-09-09T08:57:49.737Z,21.22
2022-09-09T08:59:56.351Z,21.27
2022-09-09T09:02:16.495Z,21.34
2022-09-09T09:04:37.824Z,21.33
2022-09-09T09:06:53.272Z,21.39
2022-09-09T09:09:06.588Z,21.60
2022-09-09T09:11:11.474Z,21.70
2022-09-09T09:13:22.190Z,21.85
2022-09-09T09:15:35.581Z,21.93
2022-09-09T09:17:41.499Z,22.03
2022-09-09T09:19:47.857Z,22.14
2022-09-09T09:21:58.069Z,22.28
2022-09-09T09:24:11.035Z,22.31
2022-09-09T09:26:15.918Z,22.44
2022-09-09T09:28:23.077Z,22.54
2022-09-09T09:30:39.067Z,22.64
2022-09-09T09:32:56.011Z,22.61
2022-09-09T09:35:05.734Z,22.55
2022-09-09T09:37:21.197Z,22.53
2022-09-09T09:41:56.109Z,22.51
2022-09-09T09:44:01.738Z,22.76
2022-09-09T09:46:17.543Z,22.95
2022-09-09T09:48:24.288Z,23.02
2022-09-09T09:50:29.201Z,23.04
2022-09-09T09:52:37.806Z,23.22
2022-09-09T09:54:48.018Z,23.34
2022-09-09T09:56:52.886Z,23.29
2022-09-09T09:58:59.814Z,23.35
2022-09-09T10:01:26.135Z,23.33
2022-09-09T10:03:33.061Z,23.50
2022-09-09T10:05:40.083Z,23.77
2022-09-09T10:07:49.599Z,23.92
2022-09-09T10:09:59.315Z,24.02
2022-09-09T10:12:15.221Z,23.95
2022-09-09T10:14:25.443Z,23.93
2022-09-09T10:16:46.248Z,23.90
2022-09-09T10:19:02.741Z,23.90
2022-09-09T10:21:21.850Z,23.94
2022-09-09T10:23:45.450Z,23.90
2022-09-09T10:26:20.745Z,23.89
2022-09-09T10:29:00.468Z,23.96
2022-09-09T10:31:20.588Z,23.98
2022-09-09T10:33:32.808Z,24.04
2022-09-09T10:35:42.211Z,24.18
2022-09-09T10:38:02.673Z,24.24
2022-09-09T10:40:25.753Z,24.30
2022-09-09T10:42:35.714Z,24.46
2022-09-09T10:44:58.590Z,24.36
2022-09-09T10:47:21.613Z,24.49
2022-09-09T10:49:42.837Z,24.66
2022-09-09T10:52:00.089Z,24.70
2022-09-09T10:54:24.104Z,24.64
2022-09-09T10:56:30.157Z,24.65
2022-09-09T10:58:44.463Z,24.68
2022-09-09T11:00:58.037Z,24.77
2022-09-09T11:03:05.238Z,24.88
2022-09-09T11:05:19.436Z,24.92
2022-09-09T11:07:32.681Z,25.03
2022-09-09T11:09:45.517Z,25.22
2022-09-09T11:11:54.931Z,25.28
2022-09-09T11:14:09.586Z,25.17
2022-09-09T11:16:26.994Z,25.10
2022-09-09T11:18:35.602Z,24.97
2022-09-09T11:20:40.865Z,24.92
2022-09-09T11:22:52.234Z,24.78
2022-09-09T11:25:03.969Z,24.75
2022-09-09T11:27:15.918Z,24.75
2022-09-09T11:29:48.956Z,24.67
2022-09-09T11:32:05.427Z,24.51
2022-09-09T11:34:28.730Z,24.61
2022-09-09T11:36:47.059Z,24.61
2022-09-09T11:38:55.699Z,24.65
2022-09-09T11:41:03.183Z,24.76
2022-09-09T11:43:13.910Z,24.88
2022-09-09T11:45:30.585Z,24.93
2022-09-09T11:47:35.418Z,24.85
2022-09-09T11:49:46.665Z,24.89
2022-09-09T11:51:51.411Z,24.88
2022-09-09T11:53:59.741Z,24.81
2022-09-09T11:56:14.515Z,24.75
2022-09-09T11:58:21.873Z,24.65
2022-09-09T12:00:42.614Z,24.59
2022-09-09T12:02:53.481Z,24.53
2022-09-09T12:05:06.645Z,24.50
2022-09-09T12:07:30.239Z,24.47
2022-09-09T12:09:49.878Z,24.52
2022-09-09T12:11:54.763Z,24.49
2022-09-09T12:14:01.828Z,24.43
2022-09-09T12:16:09.283Z,24.40
2022-09-09T12:18:26.376Z,24.44
2022-09-09T12:20:37.850Z,24.48
2022-09-09T12:22:55.507Z,24.43
2022-09-09T12:25:09.053Z,24.37
2022-09-09T12:27:22.428Z,24.35
2022-09-09T12:29:32.475Z,24.39
2022-09-09T12:31:48.003Z,24.42
2022-09-09T12:33:53.691Z,24.24
2022-09-09T12:36:01.750Z,24.17
2022-09-09T12:38:08.435Z,24.09
2022-09-09T12:40:25.361Z,24.13
2022-09-09T12:42:31.188Z,24.09
2022-09-09T12:44:36.109Z,24.09
2022-09-09T12:46:44.571Z,23.91
2022-09-09T12:48:49.391Z,23.88
2022-09-09T12:50:57.310Z,23.77
2022-09-09T12:53:05.051Z,23.71
2022-09-09T12:55:11.898Z,23.16
2022-09-09T12:57:18.359Z,22.44
2022-09-09T12:59:28.246Z,21.38
2022-09-09T13:01:36.560Z,20.92
2022-09-09T13:03:49.871Z,20.31
2022-09-09T13:05:56.780Z,19.73
2022-09-09T13:08:05.856Z,19.55
2022-09-09T13:10:18.085Z,19.44
2022-09-09T13:12:30.636Z,19.35
2022-09-09T13:14:40.059Z,19.46
2022-09-09T13:16:44.876Z,19.42
2022-09-09T13:18:53.400Z,19.41
2022-09-09T13:20:59.654Z,19.58
2022-09-09T13:23:04.453Z,19.78
2022-09-09T13:25:21.947Z,20.05
2022-09-09T13:27:32.495Z,20.23
2022-09-09T13:29:38.317Z,20.25
2022-09-09T13:31:43.927Z,20.15
2022-09-09T13:33:49.153Z,20.03
2022-09-09T13:36:00.195Z,19.98
2022-09-09T13:38:12.729Z,19.96
2022-09-09T13:40:23.136Z,20.03
2022-09-09T13:42:31.013Z,20.05
2022-09-09T13:44:40.476Z,20.15
2022-09-09T13:46:46.380Z,20.35
2022-09-09T13:48:58.181Z,20.47
2022-09-09T13:51:08.949Z,20.68
2022-09-09T13:53:13.868Z,20.85
2022-09-09T13:55:18.711Z,20.92
2022-09-09T13:57:26.274Z,21.02
2022-09-09T13:59:53.989Z,21.05
2022-09-09T14:01:55.950Z,21.18
2022-09-09T14:04:01.270Z,21.35
2022-09-09T14:06:08.709Z,21.53
2022-09-09T14:08:20.367Z,21.69
2022-09-09T14:10:25.109Z,21.75
2022-09-09T14:12:30.154Z,21.81
2022-09-09T14:14:34.654Z,21.75
2022-09-09T14:16:39.472Z,21.84
2022-09-09T14:18:45.079Z,21.88
2022-09-09T14:20:49.827Z,22.08
2022-09-09T14:23:03.323Z,22.18
2022-09-09T14:25:09.853Z,22.25
2022-09-09T14:27:14.628Z,22.26
2022-09-09T14:29:19.397Z,22.29
2022-09-09T14:31:24.512Z,22.36
2022-09-09T14:33:30.145Z,22.42
2022-09-09T14:35:34.884Z,22.41
2022-09-09T14:37:40.472Z,22.31
2022-09-09T14:39:48.183Z,22.28
2022-09-09T14:41:53.095Z,22.17
2022-09-09T14:43:58.262Z,22.14
2022-09-09T14:46:08.110Z,22.01
2022-09-09T14:48:13.294Z,22.02
2022-09-09T14:50:18.237Z,22.03
2022-09-09T14:52:23.006Z,22.01
2022-09-09T14:54:27.922Z,21.99
2022-09-09T14:56:37.426Z,21.98
2022-09-09T14:58:42.200Z,21.96
2022-09-09T15:00:46.944Z,21.97
2022-09-09T15:02:51.755Z,22.21
2022-09-09T15:04:58.365Z,22.45
2022-09-09T15:07:03.668Z,22.69
2022-09-09T15:09:09.276Z,22.82
2022-09-09T15:11:15.400Z,22.85
2022-09-09T15:13:22.807Z,22.81
2022-09-09T15:15:27.857Z,22.58
2022-09-09T15:17:32.615Z,22.44
2022-09-09T15:19:37.690Z,22.34
2022-09-09T15:21:42.225Z,22.14
2022-09-09T15:23:48.234Z,22.09
2022-09-09T15:25:56.823Z,22.04
2022-09-09T15:28:01.665Z,21.93
2022-09-09T15:30:10.267Z,22.01
2022-09-09T15:32:15.040Z,21.93
2022-09-09T15:34:19.937Z,21.92
2022-09-09T15:36:26.345Z,21.84
2022-09-09T15:38:31.194Z,21.80
2022-09-09T15:40:36.026Z,21.98
2022-09-09T15:42:40.770Z,22.13
2022-09-09T15:44:46.108Z,22.40
2022-09-09T15:46:55.162Z,22.56
2022-09-09T15:49:02.018Z,22.70
2022-09-09T15:51:24.858Z,22.60
2022-09-09T15:53:33.425Z,22.46
2022-09-09T15:55:38.255Z,22.42
2022-09-09T15:57:43.300Z,22.25
2022-09-09T15:59:47.893Z,22.08
2022-09-09T16:01:56.106Z,22.02
2022-09-09T16:04:02.280Z,21.81
2022-09-09T16:06:08.082Z,21.75
2022-09-09T16:08:12.831Z,21.78
2022-09-09T16:10:17.731Z,21.85
2022-09-09T16:12:22.478Z,21.92
2022-09-09T16:14:28.005Z,21.99
2022-09-09T16:16:33.712Z,22.02
2022-09-09T16:18:46.453Z,22.07
2022-09-09T16:20:57.740Z,22.08
2022-09-09T16:23:03.063Z,22.10
2022-09-09T16:25:08.645Z,22.06
2022-09-09T16:27:13.521Z,22.03
2022-09-09T16:29:19.781Z,21.93
2022-09-09T16:31:26.327Z,21.87
2022-09-09T16:33:31.734Z,21.79
2022-09-09T16:35:41.157Z,21.75
2022-09-09T16:37:45.854Z,21.65
2022-09-09T16:39:51.509Z,21.59
2022-09-09T16:41:56.301Z,21.56
2022-09-09T16:44:03.396Z,21.54
2022-09-09T16:46:17.695Z,21.54
2022-09-09T16:48:22.545Z,21.49
2022-09-09T16:50:27.312Z,21.49
2022-09-09T16:52:34.902Z,21.55
2022-09-09T16:54:39.618Z,21.55
2022-09-09T16:56:46.593Z,21.56
2022-09-09T16:58:55.299Z,21.55
2022-09-09T17:01:02.898Z,21.54
2022-09-09T17:03:07.915Z,21.47
2022-09-09T17:05:13.112Z,21.39
2022-09-09T17:07:19.629Z,21.33
2022-09-09T17:09:30.100Z,21.28
2022-09-09T17:11:35.279Z,21.24
2022-09-09T17:13:40.120Z,21.19
2022-09-09T17:15:46.255Z,20.99
2022-09-09T17:17:53.694Z,20.89
2022-09-09T17:19:58.715Z,20.84
2022-09-09T17:22:16.676Z,20.80
2022-09-09T17:24:22.832Z,20.78
2022-09-09T17:26:32.457Z,20.86
2022-09-09T17:28:38.060Z,20.96
2022-09-09T17:30:42.872Z,21.03
2022-09-09T17:32:47.878Z,21.03
2022-09-09T17:34:53.572Z,21.00
2022-09-09T17:36:58.357Z,20.96
2022-09-09T17:39:04.411Z,20.97
2022-09-09T17:41:11.850Z,20.98
2022-09-09T17:43:19.993Z,20.98
2022-09-09T17:45:24.751Z,20.84
2022-09-09T17:47:31.749Z,20.78
2022-09-09T17:49:36.628Z,20.67
2022-09-09T17:51:42.704Z,20.60
2022-09-09T17:53:50.342Z,20.55
2022-09-09T17:55:56.542Z,20.46
2022-09-09T17:58:01.271Z,20.43
2022-09-09T18:00:11.349Z,20.41
2022-09-09T18:02:19.238Z,20.42
2022-09-09T18:04:24.354Z,20.45
2022-09-09T18:06:31.753Z,20.46
2022-09-09T18:08:37.270Z,20.49
2022-09-09T18:10:42.168Z,20.51
2022-09-09T18:12:46.939Z,20.53
2022-09-09T18:14:52.548Z,20.54
2022-09-09T18:17:00.329Z,20.51
2022-09-09T18:19:06.422Z,20.50
2022-09-09T18:21:12.378Z,20.47
2022-09-09T18:23:17.104Z,20.41
2022-09-09T18:25:21.886Z,20.37
2022-09-09T18:27:26.666Z,20.39
2022-09-09T18:29:31.412Z,20.13
2022-09-09T18:31:37.928Z,19.77
2022-09-09T18:33:49.190Z,18.92
2022-09-09T18:35:53.927Z,18.22
2022-09-09T18:37:58.706Z,18.17
2022-09-09T18:40:03.509Z,18.13
2022-09-09T18:42:08.497Z,18.03
2022-09-09T18:44:16.242Z,17.99
2022-09-09T18:46:22.499Z,17.95
2022-09-09T18:48:27.273Z,17.95
2022-09-09T18:50:34.686Z,17.98
2022-09-09T18:52:39.478Z,18.00
2022-09-09T18:54:46.144Z,18.00
2022-09-09T18:56:51.356Z,17.94
2022-09-09T18:58:58.146Z,17.87
2022-09-09T19:01:03.759Z,17.83
2022-09-09T19:03:08.605Z,17.85
2022-09-09T19:05:13.416Z,17.87
2022-09-09T19:07:21.849Z,17.90
2022-09-09T19:09:28.798Z,17.92
2022-09-09T19:11:33.877Z,17.84
2022-09-09T19:13:38.992Z,17.74
2022-09-09T19:15:44.037Z,17.69
2022-09-09T19:17:48.822Z,17.70
2022-09-09T19:19:54.995Z,17.74
2022-09-09T19:21:59.707Z,17.78
2022-09-09T19:24:08.993Z,17.82
2022-09-09T19:26:16.408Z,17.84
2022-09-09T19:28:21.231Z,17.84
2022-09-09T19:30:26.402Z,17.90
2022-09-09T19:32:52.749Z,17.90
2022-09-09T19:34:55.832Z,17.93
2022-09-09T19:37:00.752Z,17.94
2022-09-09T19:39:09.372Z,18.00
2022-09-09T19:41:16.128Z,18.05
2022-09-09T19:43:20.882Z,18.12
2022-09-09T19:45:25.611Z,18.19
2022-09-09T19:47:30.483Z,18.22
2022-09-09T19:49:36.517Z,18.25
2022-09-09T19:51:41.789Z,18.23
2022-09-09T19:53:49.204Z,18.20
2022-09-09T19:55:56.596Z,18.17
2022-09-09T19:58:02.004Z,18.14
2022-09-09T20:00:08.758Z,18.13
2022-09-09T20:02:18.259Z,18.15
2022-09-09T20:04:23.252Z,18.16
2022-09-09T20:06:30.037Z,18.18
2022-09-09T20:08:35.068Z,18.18
2022-09-09T20:10:39.822Z,18.17
2022-09-09T20:12:47.134Z,18.19
2022-09-09T20:14:51.899Z,18.21
2022-09-09T20:16:56.662Z,18.19
2022-09-09T20:19:03.934Z,18.19
2022-09-09T20:21:13.133Z,18.19
2022-09-09T20:23:18.735Z,18.18
2022-09-09T20:25:24.593Z,18.14
2022-09-09T20:27:29.483Z,18.15
2022-09-09T20:29:36.785Z,18.12
2022-09-09T20:31:43.151Z,18.04
2022-09-09T20:33:48.035Z,18.01
2022-09-09T20:35:53.991Z,17.93
2022-09-09T20:37:58.693Z,17.93
2022-09-09T20:40:03.716Z,17.94
2022-09-09T20:42:08.869Z,17.97
2022-09-09T20:44:14.652Z,17.91
2022-09-09T20:46:24.269Z,17.82
2022-09-09T20:48:28.986Z,17.78
2022-09-09T20:50:34.174Z,17.76
2022-09-09T20:52:38.704Z,17.73
2022-09-09T20:54:43.415Z,17.72
2022-09-09T20:56:50.404Z,17.72
2022-09-09T20:58:55.796Z,17.68
2022-09-09T21:01:01.091Z,17.68
2022-09-09T21:03:08.500Z,17.63
2022-09-09T21:05:13.997Z,17.60
2022-09-09T21:07:18.716Z,17.53
2022-09-09T21:09:25.296Z,17.49
2022-09-09T21:11:30.059Z,17.45
2022-09-09T21:13:37.023Z,17.34
2022-09-09T21:15:42.306Z,17.30
2022-09-09T21:17:47.099Z,17.20
2022-09-09T21:19:57.185Z,17.17
2022-09-09T21:22:02.278Z,17.13
2022-09-09T21:24:07.944Z,17.09
2022-09-09T21:26:13.025Z,17.04
2022-09-09T21:28:19.161Z,17.03
2022-09-09T21:30:32.922Z,16.98
2022-09-09T21:32:41.695Z,16.93
2022-09-09T21:34:46.519Z,16.88
2022-09-09T21:36:54.055Z,16.92
2022-09-09T21:38:59.355Z,16.93
2022-09-09T21:41:06.189Z,16.94
2022-09-09T21:43:13.186Z,16.91
2022-09-09T21:45:20.098Z,16.91
2022-09-09T21:47:25.129Z,16.95
2022-09-09T21:49:29.891Z,16.99
2022-09-09T21:51:34.682Z,17.00
2022-09-09T21:53:42.057Z,17.06
2022-09-09T21:55:48.681Z,17.08
2022-09-09T21:57:53.410Z,17.13
2022-09-09T21:59:58.501Z,17.14
2022-09-09T22:02:03.344Z,17.19
2022-09-09T22:04:08.116Z,17.15
2022-09-09T22:06:15.109Z,17.18
2022-09-09T22:08:20.524Z,17.19
2022-09-09T22:10:28.600Z,17.20
2022-09-09T22:12:34.450Z,17.16
2022-09-09T22:14:39.260Z,17.13
2022-09-09T22:16:44.048Z,17.09
2022-09-09T22:18:53.914Z,17.07
2022-09-09T22:20:58.898Z,17.07
2022-09-09T22:23:04.284Z,17.01
2022-09-09T22:25:10.594Z,16.94
2022-09-09T22:27:18.459Z,16.86
2022-09-09T22:29:23.194Z,16.80
2022-09-09T22:31:28.871Z,16.81
2022-09-09T22:33:33.660Z,16.83
2022-09-09T22:35:43.404Z,16.83
2022-09-09T22:37:48.325Z,16.82
2022-09-09T22:39:53.403Z,16.80
2022-09-09T22:41:58.458Z,16.80
2022-09-09T22:44:06.100Z,16.83
2022-09-09T22:46:10.848Z,16.85
2022-09-09T22:48:16.694Z,16.82
2022-09-09T22:50:21.462Z,16.84
2022-09-09T22:52:26.180Z,16.85
2022-09-09T22:54:31.114Z,16.87
2022-09-09T22:56:35.867Z,16.91
2022-09-09T22:58:40.676Z,16.92
2022-09-09T23:00:48.006Z,16.94
2022-09-09T23:02:52.813Z,17.00
2022-09-09T23:05:00.458Z,17.00
2022-09-09T23:07:06.893Z,17.04
2022-09-09T23:09:14.784Z,17.05
2022-09-09T23:11:20.316Z,17.02
2022-09-09T23:13:25.947Z,17.00
2022-09-09T23:15:31.556Z,16.95
2022-09-09T23:17:39.011Z,16.91
2022-09-09T23:19:43.717Z,16.87
2022-09-09T23:21:50.841Z,16.87
2022-09-09T23:23:56.924Z,16.90
2022-09-09T23:26:05.383Z,16.90
2022-09-09T23:28:10.216Z,16.89
2022-09-09T23:30:15.914Z,16.91
2022-09-09T23:32:20.716Z,16.91
2022-09-09T23:34:28.119Z,16.96
2022-09-09T23:36:33.427Z,16.98
2022-09-09T23:38:39.437Z,16.97
2022-09-09T23:40:47.267Z,16.92
2022-09-09T23:42:52.022Z,16.88
2022-09-09T23:44:57.486Z,16.89
2022-09-09T23:47:02.218Z,16.92
2022-09-09T23:49:08.399Z,16.95
2022-09-09T23:51:18.046Z,16.99
2022-09-09T23:53:22.896Z,17.01
2022-09-09T23:55:27.777Z,17.03
2022-09-09T23:57:32.574Z,17.06
2022-09-09T23:59:37.609Z,17.10
